Time;durP1;ratioP1;P1;durP2;ratioP2;P2;SDS_P1;SDS_P2;PMS_P1;PMS_P2;Temp;Humidity;BMP_temperature;BMP_pressure;BME280_temperature;BME280_humidity;BME280_pressure;Samples;Min_cycle;Max_cycle;Signal;HPM_P1;HPM_P2
2022/01/11 00:00:10;;;;;;;0.30;0.30;;;;;;;;;;5137080;27;20197;-73
2022/01/11 00:02:40;;;;;;;0.20;0.20;;;;;;;;;;5145147;27;20201;-73
2022/01/11 00:05:06;;;;;;;0.30;0.30;;;;;;;;;;5145023;27;20260;-73
2022/01/11 00:07:35;;;;;;;0.20;0.20;;;;;;;;;;5144725;27;20204;-73
2022/01/11 00:10:01;;;;;;;0.20;0.20;;;;;;;;;;5145100;27;20201;-73
2022/01/11 00:12:29;;;;;;;0.30;0.30;;;;;;;;;;5145084;27;20208;-72
2022/01/11 00:14:55;;;;;;;0.30;0.30;;;;;;;;;;5133600;27;20201;-73
2022/01/11 00:17:21;;;;;;;0.40;0.40;;;;;;;;;;5129258;27;20535;-73
2022/01/11 00:19:49;;;;;;;0.30;0.30;;;;;;;;;;5133082;27;20297;-73
2022/01/11 00:22:19;;;;;;;0.30;0.30;;;;;;;;;;5144988;27;20270;-73
2022/01/11 00:24:44;;;;;;;0.30;0.30;;;;;;;;;;5131813;27;20277;-73
2022/01/11 00:27:11;;;;;;;2.10;2.10;;;;;;;;;;5133940;27;20192;-73
2022/01/11 00:29:40;;;;;;;2.30;2.20;;;;;;;;;;5131800;27;20283;-73
2022/01/11 00:32:11;;;;;;;2.20;2.20;;;;;;;;;;5126719;27;20388;-73
2022/01/11 00:34:47;;;;;;;0.30;0.30;;;;;;;;;;5136623;27;20213;-73
2022/01/11 00:37:14;;;;;;;0.30;0.30;;;;;;;;;;5141605;27;20504;-73
2022/01/11 00:39:42;;;;;;;0.30;0.30;;;;;;;;;;5126670;27;20210;-73
2022/01/11 00:42:08;;;;;;;0.30;0.30;;;;;;;;;;5127567;27;20221;-73
2022/01/11 00:44:34;;;;;;;0.30;0.30;;;;;;;;;;5137206;27;20208;-72
2022/01/11 00:47:02;;;;;;;0.77;0.77;;;;;;;;;;5138109;27;20194;-73
2022/01/11 00:49:28;;;;;;;0.30;0.30;;;;;;;;;;5126124;27;20201;-73
2022/01/11 00:51:54;;;;;;;0.67;0.67;;;;;;;;;;5140726;27;20555;-73
2022/01/11 00:54:21;;;;;;;17.17;2.27;;;;;;;;;;5127622;27;20205;-73
2022/01/11 00:56:47;;;;;;;2.57;2.47;;;;;;;;;;5131791;27;20433;-73
2022/01/11 00:59:13;;;;;;;0.30;0.30;;;;;;;;;;5128767;27;20200;-73
2022/01/11 01:01:39;;;;;;;0.30;0.30;;;;;;;;;;5130307;27;20200;-72
2022/01/11 01:04:07;;;;;;;0.30;0.30;;;;;;;;;;5138723;27;20230;-73
2022/01/11 01:06:34;;;;;;;0.30;0.30;;;;;;;;;;5131740;27;20234;-72
2022/01/11 01:09:00;;;;;;;0.30;0.30;;;;;;;;;;5135525;27;20397;-72
2022/01/11 01:11:26;;;;;;;0.30;0.30;;;;;;;;;;5144520;27;20241;-73
2022/01/11 01:13:52;;;;;;;0.30;0.30;;;;;;;;;;5144075;27;20204;-72
2022/01/11 01:16:20;;;;;;;1.17;1.17;;;;;;;;;;5144097;27;20516;-72
2022/01/11 01:18:46;;;;;;;2.20;2.10;;;;;;;;;;5144341;27;20418;-73
2022/01/11 01:21:14;;;;;;;0.50;0.50;;;;;;;;;;5144072;27;20204;-72
2022/01/11 01:23:40;;;;;;;0.57;0.57;;;;;;;;;;5144371;27;20204;-73
2022/01/11 01:26:06;;;;;;;0.30;0.30;;;;;;;;;;5125211;27;20251;-71
2022/01/11 01:28:32;;;;;;;0.30;0.30;;;;;;;;;;5123740;28;20235;-72
2022/01/11 01:31:01;;;;;;;3.50;3.33;;;;;;;;;;5123756;28;20505;-72
2022/01/11 01:33:27;;;;;;;0.70;0.70;;;;;;;;;;5123584;28;20263;-72
2022/01/11 01:35:59;;;;;;;0.30;0.30;;;;;;;;;;5123312;28;20213;-72
2022/01/11 01:38:26;;;;;;;2.00;2.00;;;;;;;;;;5123526;28;20220;-73
2022/01/11 01:40:56;;;;;;;0.30;0.30;;;;;;;;;;5123611;28;20229;-71
2022/01/11 01:43:24;;;;;;;0.30;0.30;;;;;;;;;;5123301;28;20223;-72
2022/01/11 01:45:50;;;;;;;0.30;0.30;;;;;;;;;;5122989;28;20395;-71
2022/01/11 01:48:17;;;;;;;0.30;0.30;;;;;;;;;;5143429;28;20220;-72
2022/01/11 01:50:43;;;;;;;0.30;0.30;;;;;;;;;;5143812;27;20219;-72
2022/01/11 01:53:11;;;;;;;0.30;0.30;;;;;;;;;;5144007;27;20211;-72
2022/01/11 01:55:39;;;;;;;0.30;0.30;;;;;;;;;;5143802;27;20201;-72
2022/01/11 01:58:05;;;;;;;7.00;6.70;;;;;;;;;;5143712;27;20221;-73
2022/01/11 02:00:32;;;;;;;0.40;0.40;;;;;;;;;;5142255;27;20246;-72
2022/01/11 02:03:05;;;;;;;5.30;3.93;;;;;;;;;;5123394;28;20252;-73
2022/01/11 02:05:31;;;;;;;3.43;3.23;;;;;;;;;;5123619;28;20202;-72
2022/01/11 02:07:58;;;;;;;0.37;0.37;;;;;;;;;;5127264;28;20218;-72
2022/01/11 02:10:24;;;;;;;0.30;0.30;;;;;;;;;;5126911;28;20246;-73
2022/01/11 02:12:52;;;;;;;0.87;0.87;;;;;;;;;;5127378;28;20202;-72
2022/01/11 02:15:18;;;;;;;0.30;0.30;;;;;;;;;;5126768;28;20204;-73
2022/01/11 02:17:45;;;;;;;0.30;0.30;;;;;;;;;;5126757;28;20236;-73
2022/01/11 02:20:13;;;;;;;0.50;0.50;;;;;;;;;;5126992;28;20273;-72
2022/01/11 02:22:40;;;;;;;0.30;0.30;;;;;;;;;;5126951;28;20278;-72
2022/01/11 02:25:06;;;;;;;0.30;0.30;;;;;;;;;;5127003;28;20226;-72
2022/01/11 02:27:33;;;;;;;0.87;0.87;;;;;;;;;;5126645;28;20243;-72
2022/01/11 02:29:59;;;;;;;0.30;0.30;;;;;;;;;;5126952;28;20216;-72
2022/01/11 02:32:26;;;;;;;0.30;0.30;;;;;;;;;;5131802;27;20419;-73
2022/01/11 02:34:52;;;;;;;0.30;0.30;;;;;;;;;;5147401;27;20201;-72
2022/01/11 02:37:19;;;;;;;0.30;0.30;;;;;;;;;;5146322;27;20580;-72
2022/01/11 02:39:46;;;;;;;0.30;0.30;;;;;;;;;;5135193;27;20250;-72
2022/01/11 02:42:12;;;;;;;0.30;0.30;;;;;;;;;;5126611;28;20431;-72
2022/01/11 02:44:38;;;;;;;0.30;0.30;;;;;;;;;;5126597;28;20202;-72
2022/01/11 02:47:05;;;;;;;1.40;1.40;;;;;;;;;;5126474;28;20225;-72
2022/01/11 02:49:31;;;;;;;1.10;0.77;;;;;;;;;;5126072;28;20425;-73
2022/01/11 02:51:57;;;;;;;1.43;1.43;;;;;;;;;;5126474;28;20348;-72
2022/01/11 02:54:25;;;;;;;3.33;3.17;;;;;;;;;;5126366;28;20557;-71
2022/01/11 02:56:51;;;;;;;0.93;0.93;;;;;;;;;;5126448;28;20550;-72
2022/01/11 02:59:17;;;;;;;0.40;0.40;;;;;;;;;;5126300;28;20250;-72
2022/01/11 03:01:44;;;;;;;1.17;1.17;;;;;;;;;;5125837;28;20249;-72
2022/01/11 03:04:10;;;;;;;0.60;0.60;;;;;;;;;;5125852;28;20209;-72
2022/01/11 03:06:36;;;;;;;0.57;0.57;;;;;;;;;;5126199;28;20202;-72
2022/01/11 03:09:02;;;;;;;0.30;0.30;;;;;;;;;;5126025;28;20218;-72
2022/01/11 03:11:32;;;;;;;0.30;0.30;;;;;;;;;;5126040;28;20202;-72
2022/01/11 03:13:59;;;;;;;0.30;0.30;;;;;;;;;;5126097;28;20419;-72
2022/01/11 03:16:26;;;;;;;1.90;1.90;;;;;;;;;;5125119;28;20206;-72
2022/01/11 03:18:52;;;;;;;0.30;0.30;;;;;;;;;;5126055;28;20413;-71
2022/01/11 03:21:18;;;;;;;0.30;0.30;;;;;;;;;;5125909;28;20205;-72
2022/01/11 03:23:45;;;;;;;0.30;0.30;;;;;;;;;;5125892;28;20205;-73
2022/01/11 03:26:11;;;;;;;0.30;0.30;;;;;;;;;;5129892;27;20257;-72
2022/01/11 03:28:38;;;;;;;0.30;0.30;;;;;;;;;;5146082;27;20201;-72
2022/01/11 03:31:05;;;;;;;0.20;0.20;;;;;;;;;;5146305;27;20397;-72
2022/01/11 03:33:31;;;;;;;1.33;1.33;;;;;;;;;;5146038;27;20205;-72
2022/01/11 03:35:57;;;;;;;0.30;0.30;;;;;;;;;;5146218;27;20201;-72
2022/01/11 03:38:24;;;;;;;0.30;0.30;;;;;;;;;;5146139;27;20543;-72
2022/01/11 03:40:50;;;;;;;0.30;0.30;;;;;;;;;;5146229;27;20213;-72
2022/01/11 03:43:16;;;;;;;0.30;0.30;;;;;;;;;;5146102;27;20583;-71
2022/01/11 03:45:44;;;;;;;0.30;0.30;;;;;;;;;;5145693;27;20234;-71
2022/01/11 03:48:13;;;;;;;0.30;0.30;;;;;;;;;;5145933;27;20204;-72
2022/01/11 03:50:39;;;;;;;0.30;0.30;;;;;;;;;;5145959;27;20347;-72
2022/01/11 03:53:15;;;;;;;0.30;0.30;;;;;;;;;;5145578;27;20262;-72
2022/01/11 03:55:57;;;;;;;5.60;3.67;;;;;;;;;;5145532;27;20197;-71
2022/01/11 03:58:26;;;;;;;0.23;0.23;;;;;;;;;;5145684;27;20250;-72
2022/01/11 04:00:54;;;;;;;0.73;0.73;;;;;;;;;;5145602;27;20205;-72
2022/01/11 04:03:20;;;;;;;0.37;0.37;;;;;;;;;;5145468;27;20444;-72
2022/01/11 04:05:47;;;;;;;2.17;2.07;;;;;;;;;;5145342;27;20208;-72
2022/01/11 04:08:13;;;;;;;0.40;0.40;;;;;;;;;;5145280;27;20248;-72
2022/01/11 04:10:40;;;;;;;0.30;0.30;;;;;;;;;;5145221;27;20201;-73
2022/01/11 04:13:06;;;;;;;4.70;2.03;;;;;;;;;;5145484;27;20204;-72
2022/01/11 04:15:32;;;;;;;0.30;0.30;;;;;;;;;;5145204;27;20224;-73
2022/01/11 04:18:00;;;;;;;1.30;1.30;;;;;;;;;;5144904;27;20233;-72
2022/01/11 04:20:26;;;;;;;0.40;0.40;;;;;;;;;;5145046;27;20208;-72
2022/01/11 04:22:52;;;;;;;0.30;0.30;;;;;;;;;;5145114;27;20252;-72
2022/01/11 04:25:19;;;;;;;0.30;0.30;;;;;;;;;;5145327;27;20204;-72
2022/01/11 04:27:45;;;;;;;0.30;0.30;;;;;;;;;;5145058;27;20422;-72
2022/01/11 04:30:12;;;;;;;5.73;5.40;;;;;;;;;;5144215;27;20564;-71
2022/01/11 04:32:38;;;;;;;0.27;0.27;;;;;;;;;;5144592;27;20198;-72
2022/01/11 04:35:06;;;;;;;0.30;0.30;;;;;;;;;;5145109;27;20225;-72
2022/01/11 04:37:32;;;;;;;0.30;0.30;;;;;;;;;;5144909;27;20269;-72
2022/01/11 04:39:59;;;;;;;0.40;0.40;;;;;;;;;;5141993;27;20431;-72
2022/01/11 04:42:25;;;;;;;0.30;0.30;;;;;;;;;;5123955;28;20490;-72
2022/01/11 04:44:51;;;;;;;0.30;0.30;;;;;;;;;;5124005;28;20246;-73
2022/01/11 04:47:17;;;;;;;3.77;3.50;;;;;;;;;;5123941;28;20205;-72
2022/01/11 04:49:44;;;;;;;0.30;0.30;;;;;;;;;;5124001;28;20209;-71
2022/01/11 04:52:11;;;;;;;2.07;1.70;;;;;;;;;;5124334;28;20202;-72
2022/01/11 04:54:40;;;;;;;0.30;0.30;;;;;;;;;;5124172;28;20202;-72
2022/01/11 04:57:06;;;;;;;0.30;0.30;;;;;;;;;;5123963;28;20204;-71
2022/01/11 04:59:32;;;;;;;0.30;0.30;;;;;;;;;;5123552;28;20224;-72
2022/01/11 05:01:58;;;;;;;0.27;0.27;;;;;;;;;;5123991;28;20258;-71
2022/01/11 05:04:25;;;;;;;0.30;0.30;;;;;;;;;;5123273;28;20378;-71
2022/01/11 05:06:51;;;;;;;0.30;0.30;;;;;;;;;;5135142;27;20212;-72
2022/01/11 05:09:18;;;;;;;0.30;0.30;;;;;;;;;;5144447;27;20221;-71
2022/01/11 05:11:44;;;;;;;0.30;0.30;;;;;;;;;;5144196;27;20201;-72
2022/01/11 05:14:11;;;;;;;0.30;0.30;;;;;;;;;;5144457;27;20208;-72
2022/01/11 05:16:37;;;;;;;0.30;0.30;;;;;;;;;;5144045;27;20238;-72
2022/01/11 05:19:06;;;;;;;0.30;0.30;;;;;;;;;;5144013;27;20250;-72
2022/01/11 05:21:33;;;;;;;0.30;0.30;;;;;;;;;;5143984;27;20212;-73
2022/01/11 05:23:59;;;;;;;0.30;0.30;;;;;;;;;;5144129;27;20201;-73
2022/01/11 05:26:27;;;;;;;0.30;0.30;;;;;;;;;;5144396;27;20201;-73
2022/01/11 05:28:53;;;;;;;0.30;0.30;;;;;;;;;;5144464;27;20197;-72
2022/01/11 05:31:19;;;;;;;0.40;0.40;;;;;;;;;;5160094;27;20268;-72
2022/01/11 05:33:46;;;;;;;0.30;0.30;;;;;;;;;;5127776;27;20419;-73
2022/01/11 05:36:12;;;;;;;0.40;0.40;;;;;;;;;;5123664;28;20210;-73
2022/01/11 05:38:39;;;;;;;2.93;2.77;;;;;;;;;;5123434;28;20256;-73
2022/01/11 05:41:06;;;;;;;0.30;0.30;;;;;;;;;;5126675;28;20243;-72
2022/01/11 05:43:35;;;;;;;2.77;2.23;;;;;;;;;;5127698;28;20269;-73
2022/01/11 05:46:01;;;;;;;0.30;0.30;;;;;;;;;;5127286;28;20509;-75
2022/01/11 05:48:32;;;;;;;0.30;0.30;;;;;;;;;;5127364;28;20201;-72
2022/01/11 05:50:58;;;;;;;0.30;0.30;;;;;;;;;;5127792;28;20481;-73
2022/01/11 05:53:24;;;;;;;0.37;0.37;;;;;;;;;;5127583;28;20558;-73
2022/01/11 05:55:50;;;;;;;2.10;2.00;;;;;;;;;;5133455;27;20201;-73
2022/01/11 05:58:17;;;;;;;0.30;0.30;;;;;;;;;;5147694;27;20231;-72
2022/01/11 06:00:44;;;;;;;0.30;0.30;;;;;;;;;;5148030;27;20265;-74
2022/01/11 06:03:10;;;;;;;0.40;0.40;;;;;;;;;;5148065;27;20205;-72
2022/01/11 06:05:39;;;;;;;0.30;0.30;;;;;;;;;;5147432;27;20201;-71
2022/01/11 06:08:05;;;;;;;0.30;0.30;;;;;;;;;;5147464;27;20295;-72
2022/01/11 06:10:31;;;;;;;0.30;0.30;;;;;;;;;;5147558;27;20257;-72
2022/01/11 06:12:58;;;;;;;2.63;2.40;;;;;;;;;;5147888;27;20265;-72
2022/01/11 06:15:24;;;;;;;0.30;0.30;;;;;;;;;;5147785;27;20201;-72
2022/01/11 06:17:51;;;;;;;0.30;0.30;;;;;;;;;;5147386;27;20216;-72
2022/01/11 06:20:18;;;;;;;0.30;0.30;;;;;;;;;;5147538;27;20224;-72
2022/01/11 06:22:44;;;;;;;0.30;0.30;;;;;;;;;;5147496;27;20222;-72
2022/01/11 06:25:10;;;;;;;0.30;0.30;;;;;;;;;;5147579;27;20254;-72
2022/01/11 06:27:39;;;;;;;3.23;3.03;;;;;;;;;;5147524;27;20201;-71
2022/01/11 06:30:06;;;;;;;0.30;0.30;;;;;;;;;;5147385;27;20197;-72
2022/01/11 06:32:32;;;;;;;0.30;0.30;;;;;;;;;;5147444;27;20499;-72
2022/01/11 06:35:00;;;;;;;0.30;0.30;;;;;;;;;;5147377;27;20523;-71
2022/01/11 06:37:26;;;;;;;0.30;0.30;;;;;;;;;;5147184;27;20269;-73
2022/01/11 06:39:52;;;;;;;0.30;0.30;;;;;;;;;;5147115;27;20221;-72
2022/01/11 06:42:19;;;;;;;0.30;0.30;;;;;;;;;;5144241;27;20423;-73
2022/01/11 06:44:45;;;;;;;0.30;0.30;;;;;;;;;;5147043;27;20492;-72
2022/01/11 06:47:11;;;;;;;0.23;0.23;;;;;;;;;;5147226;27;20419;-71
2022/01/11 06:49:38;;;;;;;0.30;0.30;;;;;;;;;;5147102;27;20483;-71
2022/01/11 06:52:06;;;;;;;0.33;0.33;;;;;;;;;;5146226;27;20220;-72
2022/01/11 06:54:32;;;;;;;0.23;0.23;;;;;;;;;;5146733;27;20197;-72
2022/01/11 06:56:58;;;;;;;0.30;0.30;;;;;;;;;;5146631;27;20201;-72
2022/01/11 06:59:24;;;;;;;2.63;2.53;;;;;;;;;;5146563;27;20221;-72
2022/01/11 07:01:51;;;;;;;0.30;0.30;;;;;;;;;;5131443;27;20206;-72
2022/01/11 07:04:17;;;;;;;0.30;0.30;;;;;;;;;;5126288;28;20204;-72
2022/01/11 07:06:43;;;;;;;0.50;0.50;;;;;;;;;;5140275;27;20427;-71
2022/01/11 07:09:11;;;;;;;0.30;0.30;;;;;;;;;;5146378;27;20292;-71
2022/01/11 07:11:37;;;;;;;0.30;0.30;;;;;;;;;;5132963;27;20274;-71
2022/01/11 07:14:04;;;;;;;0.30;0.30;;;;;;;;;;5130831;27;20209;-71
2022/01/11 07:16:30;;;;;;;0.33;0.33;;;;;;;;;;5132057;27;20201;-72
2022/01/11 07:18:57;;;;;;;0.30;0.30;;;;;;;;;;5125679;27;20390;-72
2022/01/11 07:21:23;;;;;;;0.30;0.30;;;;;;;;;;5141601;27;20205;-73
2022/01/11 07:23:49;;;;;;;0.30;0.30;;;;;;;;;;5133946;27;20239;-73
2022/01/11 07:26:17;;;;;;;0.27;0.27;;;;;;;;;;5131106;27;20212;-75
2022/01/11 07:28:43;;;;;;;0.30;0.30;;;;;;;;;;5128599;27;20274;-77
2022/01/11 07:31:12;;;;;;;0.30;0.30;;;;;;;;;;5126974;27;20205;-74
2022/01/11 07:33:38;;;;;;;0.93;0.93;;;;;;;;;;5129989;27;20501;-75
2022/01/11 07:36:05;;;;;;;0.30;0.30;;;;;;;;;;5133685;27;20504;-75
2022/01/11 07:38:31;;;;;;;0.30;0.30;;;;;;;;;;5125829;27;20213;-75
2022/01/11 07:40:57;;;;;;;0.90;0.90;;;;;;;;;;5130870;27;20248;-75
2022/01/11 07:43:25;;;;;;;1.03;1.03;;;;;;;;;;5125124;28;20362;-75
2022/01/11 07:45:51;;;;;;;0.30;0.30;;;;;;;;;;5133239;27;20235;-73
2022/01/11 07:48:17;;;;;;;0.50;0.50;;;;;;;;;;5127293;27;20213;-74
2022/01/11 07:50:43;;;;;;;0.30;0.30;;;;;;;;;;5124905;28;20198;-73
2022/01/11 07:53:10;;;;;;;0.30;0.30;;;;;;;;;;5125191;28;20202;-72
2022/01/11 07:55:36;;;;;;;0.77;0.77;;;;;;;;;;5125145;28;20372;-73
2022/01/11 07:58:02;;;;;;;0.53;0.53;;;;;;;;;;5124860;28;20212;-72
2022/01/11 08:00:31;;;;;;;0.30;0.30;;;;;;;;;;5124662;27;20221;-72
2022/01/11 08:02:57;;;;;;;0.30;0.30;;;;;;;;;;5127713;27;20212;-73
2022/01/11 08:05:23;;;;;;;0.30;0.30;;;;;;;;;;5124826;28;20205;-74
2022/01/11 08:07:50;;;;;;;1.20;1.20;;;;;;;;;;5134026;27;20238;-74
2022/01/11 08:10:18;;;;;;;0.40;0.40;;;;;;;;;;5135916;27;20292;-74
2022/01/11 08:12:44;;;;;;;1.70;1.70;;;;;;;;;;5131855;27;20223;-74
2022/01/11 08:15:12;;;;;;;0.30;0.30;;;;;;;;;;5124462;28;20249;-74
2022/01/11 08:17:40;;;;;;;0.27;0.27;;;;;;;;;;5124429;28;20277;-74
2022/01/11 08:20:07;;;;;;;0.30;0.30;;;;;;;;;;5124605;28;20232;-73
2022/01/11 08:22:33;;;;;;;0.33;0.33;;;;;;;;;;5124303;28;20205;-73
2022/01/11 08:24:59;;;;;;;0.30;0.30;;;;;;;;;;5124026;28;20257;-73
2022/01/11 08:27:25;;;;;;;0.20;0.20;;;;;;;;;;5124512;28;20204;-74
2022/01/11 08:29:51;;;;;;;0.30;0.30;;;;;;;;;;5124052;28;20201;-73
2022/01/11 08:32:18;;;;;;;0.30;0.30;;;;;;;;;;5139528;27;20250;-73
2022/01/11 08:34:45;;;;;;;0.30;0.30;;;;;;;;;;5145065;27;20201;-73
2022/01/11 08:37:12;;;;;;;0.30;0.30;;;;;;;;;;5144498;27;20216;-72
2022/01/11 08:39:39;;;;;;;0.30;0.30;;;;;;;;;;5144838;27;20217;-73
2022/01/11 08:42:08;;;;;;;0.30;0.30;;;;;;;;;;5142596;27;20205;-73
2022/01/11 08:44:34;;;;;;;0.30;0.30;;;;;;;;;;5144689;27;20204;-74
2022/01/11 08:47:00;;;;;;;0.30;0.30;;;;;;;;;;5144802;27;20208;-73
2022/01/11 08:49:27;;;;;;;0.20;0.20;;;;;;;;;;5144767;27;20256;-74
2022/01/11 08:51:54;;;;;;;0.30;0.30;;;;;;;;;;5144389;27;20205;-74
2022/01/11 08:54:24;;;;;;;3.70;3.50;;;;;;;;;;5144457;27;20204;-73
2022/01/11 08:56:52;;;;;;;0.30;0.30;;;;;;;;;;5143653;27;20201;-74
2022/01/11 08:59:18;;;;;;;0.30;0.30;;;;;;;;;;5139422;27;20243;-72
2022/01/11 09:01:44;;;;;;;0.30;0.30;;;;;;;;;;5133598;27;20201;-74
2022/01/11 09:04:11;;;;;;;0.30;0.30;;;;;;;;;;5135303;27;20205;-74
2022/01/11 09:06:37;;;;;;;0.20;0.20;;;;;;;;;;5144117;27;20509;-74
2022/01/11 09:09:05;;;;;;;0.30;0.30;;;;;;;;;;5144244;27;20224;-75
2022/01/11 09:11:31;;;;;;;0.30;0.30;;;;;;;;;;5139223;27;20414;-75
2022/01/11 09:13:58;;;;;;;0.30;0.30;;;;;;;;;;5140631;27;20205;-76
2022/01/11 09:16:25;;;;;;;0.30;0.30;;;;;;;;;;5136444;27;20205;-75
2022/01/11 09:18:51;;;;;;;0.30;0.30;;;;;;;;;;5132317;27;20268;-74
2022/01/11 09:21:20;;;;;;;0.30;0.30;;;;;;;;;;5123576;28;20229;-72
2022/01/11 09:23:46;;;;;;;0.30;0.30;;;;;;;;;;5132957;27;20397;-73
2022/01/11 09:26:14;;;;;;;0.30;0.30;;;;;;;;;;5143377;27;20211;-75
2022/01/11 09:28:40;;;;;;;0.30;0.30;;;;;;;;;;5144108;27;20209;-75
2022/01/11 09:31:07;;;;;;;0.30;0.30;;;;;;;;;;5144338;27;20268;-74
2022/01/11 09:33:34;;;;;;;0.27;0.27;;;;;;;;;;5143941;27;20201;-76
2022/01/11 09:36:01;;;;;;;0.30;0.30;;;;;;;;;;5144276;27;20204;-76
2022/01/11 09:38:27;;;;;;;0.30;0.30;;;;;;;;;;5144529;27;20208;-74
2022/01/11 09:40:55;;;;;;;0.30;0.30;;;;;;;;;;5137497;27;20222;-75
2022/01/11 09:43:24;;;;;;;0.30;0.30;;;;;;;;;;5137144;27;20209;-73
2022/01/11 09:45:52;;;;;;;0.30;0.30;;;;;;;;;;5142815;27;20201;-73
2022/01/11 09:48:19;;;;;;;0.30;0.30;;;;;;;;;;5124128;27;20202;-72
2022/01/11 09:50:45;;;;;;;0.30;0.30;;;;;;;;;;5123487;28;20503;-73
2022/01/11 09:53:11;;;;;;;0.30;0.30;;;;;;;;;;5123488;28;20227;-74
2022/01/11 09:55:38;;;;;;;2.53;1.90;;;;;;;;;;5123401;28;20239;-74
2022/01/11 09:58:05;;;;;;;0.30;0.30;;;;;;;;;;5123145;28;20210;-74
2022/01/11 10:00:32;;;;;;;0.30;0.30;;;;;;;;;;5123289;28;20462;-74
2022/01/11 10:02:59;;;;;;;0.30;0.30;;;;;;;;;;5123382;28;20258;-73
2022/01/11 10:05:25;;;;;;;0.30;0.30;;;;;;;;;;5141012;28;20397;-74
2022/01/11 10:07:52;;;;;;;0.40;0.40;;;;;;;;;;5136798;27;20239;-75
2022/01/11 10:10:19;;;;;;;0.30;0.30;;;;;;;;;;5138050;27;20507;-74
2022/01/11 10:12:47;;;;;;;0.30;0.30;;;;;;;;;;5138000;28;20270;-73
2022/01/11 10:15:13;;;;;;;0.30;0.30;;;;;;;;;;5143616;27;20234;-74
2022/01/11 10:17:42;;;;;;;1.23;1.23;;;;;;;;;;5139197;27;20209;-74
2022/01/11 10:20:10;;;;;;;0.43;0.43;;;;;;;;;;5139670;27;20224;-74
2022/01/11 10:22:44;;;;;;;0.30;0.30;;;;;;;;;;5143577;27;20197;-74
2022/01/11 10:25:11;;;;;;;0.30;0.30;;;;;;;;;;5143719;27;20229;-74
2022/01/11 10:27:37;;;;;;;0.30;0.30;;;;;;;;;;5145307;27;20250;-72
2022/01/11 10:30:05;;;;;;;0.30;0.30;;;;;;;;;;5147141;27;20228;-73
2022/01/11 10:32:34;;;;;;;0.53;0.53;;;;;;;;;;5147050;27;20208;-71
2022/01/11 10:35:04;;;;;;;0.30;0.30;;;;;;;;;;5146970;27;20474;-73
2022/01/11 10:37:32;;;;;;;0.30;0.30;;;;;;;;;;5147150;27;20205;-73
2022/01/11 10:40:06;;;;;;;0.30;0.30;;;;;;;;;;5146817;27;20217;-72
2022/01/11 10:42:34;;;;;;;0.30;0.30;;;;;;;;;;5133215;27;20484;-74
2022/01/11 10:45:01;;;;;;;0.30;0.30;;;;;;;;;;5146703;27;20392;-74
2022/01/11 10:47:29;;;;;;;0.30;0.30;;;;;;;;;;5146489;27;20257;-75
2022/01/11 10:49:57;;;;;;;0.20;0.20;;;;;;;;;;5145121;27;20218;-73
2022/01/11 10:52:25;;;;;;;0.40;0.40;;;;;;;;;;5144412;27;20205;-72
2022/01/11 10:54:52;;;;;;;0.30;0.30;;;;;;;;;;5145470;27;20216;-73
2022/01/11 10:57:20;;;;;;;0.30;0.30;;;;;;;;;;5138072;27;20234;-74
2022/01/11 11:00:04;;;;;;;0.40;0.40;;;;;;;;;;5140616;27;20205;-73
2022/01/11 11:02:30;;;;;;;2.17;2.10;;;;;;;;;;5141077;27;20197;-72
2022/01/11 11:04:58;;;;;;;0.40;0.40;;;;;;;;;;5142627;27;20204;-73
2022/01/11 11:07:27;;;;;;;0.30;0.30;;;;;;;;;;5139982;27;20496;-72
2022/01/11 11:09:54;;;;;;;0.20;0.20;;;;;;;;;;5142364;27;20259;-73
2022/01/11 11:12:21;;;;;;;0.30;0.30;;;;;;;;;;5145306;27;20235;-74
2022/01/11 11:14:48;;;;;;;0.20;0.20;;;;;;;;;;5146630;27;20418;-74
2022/01/11 11:17:25;;;;;;;0.30;0.30;;;;;;;;;;5146364;27;20257;-75
2022/01/11 11:19:55;;;;;;;0.30;0.30;;;;;;;;;;5146588;27;20413;-74
2022/01/11 11:22:22;;;;;;;0.20;0.20;;;;;;;;;;5146756;27;20500;-72
2022/01/11 11:24:49;;;;;;;0.20;0.20;;;;;;;;;;5146637;27;20201;-73
2022/01/11 11:27:16;;;;;;;0.20;0.20;;;;;;;;;;5146187;27;20247;-73
2022/01/11 11:29:43;;;;;;;0.30;0.30;;;;;;;;;;5146399;27;20515;-75
2022/01/11 11:32:09;;;;;;;0.20;0.20;;;;;;;;;;5146142;27;20228;-74
2022/01/11 11:34:36;;;;;;;0.20;0.20;;;;;;;;;;5146331;27;20504;-74
2022/01/11 11:37:04;;;;;;;0.20;0.20;;;;;;;;;;5146061;27;20262;-75
2022/01/11 11:39:31;;;;;;;1.77;1.70;;;;;;;;;;5145685;27;20201;-74
2022/01/11 11:42:00;;;;;;;0.67;0.67;;;;;;;;;;5145770;27;20229;-74
2022/01/11 11:44:27;;;;;;;0.20;0.20;;;;;;;;;;5145654;27;20205;-74
2022/01/11 11:46:56;;;;;;;1.53;1.43;;;;;;;;;;5144934;27;20246;-72
2022/01/11 11:49:37;;;;;;;0.20;0.20;;;;;;;;;;5135184;27;20211;-74
2022/01/11 11:52:07;;;;;;;0.80;0.80;;;;;;;;;;5145482;27;20197;-74
2022/01/11 11:54:46;;;;;;;0.40;0.40;;;;;;;;;;5145785;27;20209;-74
2022/01/11 11:57:15;;;;;;;0.50;0.50;;;;;;;;;;5145185;27;20196;-73
2022/01/11 11:59:41;;;;;;;0.20;0.20;;;;;;;;;;5145299;27;20216;-74
2022/01/11 12:02:10;;;;;;;0.23;0.23;;;;;;;;;;5145333;27;20225;-72
2022/01/11 12:04:51;;;;;;;0.20;0.20;;;;;;;;;;5145550;27;20242;-73
2022/01/11 12:07:28;;;;;;;0.20;0.20;;;;;;;;;;5145234;27;20226;-73
2022/01/11 12:09:54;;;;;;;0.20;0.20;;;;;;;;;;5145015;27;20217;-73
2022/01/11 12:12:36;;;;;;;0.20;0.20;;;;;;;;;;5144557;27;20242;-74
2022/01/11 12:15:31;;;;;;;0.27;0.27;;;;;;;;;;5145118;27;20242;-73
2022/01/11 12:18:11;;;;;;;0.20;0.20;;;;;;;;;;5145071;27;20216;-74
2022/01/11 12:20:41;;;;;;;0.20;0.20;;;;;;;;;;5145089;27;20258;-74
2022/01/11 12:23:07;;;;;;;0.30;0.30;;;;;;;;;;5145322;27;20227;-74
2022/01/11 12:25:38;;;;;;;0.20;0.20;;;;;;;;;;5145014;27;20328;-73
2022/01/11 12:28:05;;;;;;;0.20;0.20;;;;;;;;;;5145100;27;20197;-74
2022/01/11 12:30:34;;;;;;;0.50;0.50;;;;;;;;;;5144629;27;20194;-75
2022/01/11 12:33:08;;;;;;;0.20;0.20;;;;;;;;;;5142001;27;20509;-74
2022/01/11 12:35:34;;;;;;;0.20;0.20;;;;;;;;;;5124591;28;20505;-73
2022/01/11 12:38:07;;;;;;;0.20;0.20;;;;;;;;;;5124177;28;20224;-73
2022/01/11 12:40:38;;;;;;;0.20;0.20;;;;;;;;;;5124132;28;20263;-73
2022/01/11 12:43:06;;;;;;;0.30;0.30;;;;;;;;;;5124421;27;20194;-74
2022/01/11 12:45:55;;;;;;;0.20;0.20;;;;;;;;;;5124122;28;20202;-73
2022/01/11 12:48:36;;;;;;;0.20;0.20;;;;;;;;;;5124173;28;20235;-73
2022/01/11 12:51:02;;;;;;;0.20;0.20;;;;;;;;;;5114418;28;20456;-72
2022/01/11 12:53:28;;;;;;;0.20;0.20;;;;;;;;;;5124081;27;20371;-73
2022/01/11 12:55:56;;;;;;;0.20;0.20;;;;;;;;;;5124135;28;20278;-73
2022/01/11 12:58:22;;;;;;;0.20;0.20;;;;;;;;;;5123898;28;20247;-74
2022/01/11 13:00:48;;;;;;;0.20;0.20;;;;;;;;;;5123856;28;20221;-76
2022/01/11 13:03:16;;;;;;;0.20;0.20;;;;;;;;;;5123791;28;20322;-76
2022/01/11 13:05:43;;;;;;;1.63;1.63;;;;;;;;;;5124154;28;20258;-76
2022/01/11 13:08:09;;;;;;;0.20;0.20;;;;;;;;;;5123575;28;20263;-76
2022/01/11 13:10:36;;;;;;;0.20;0.20;;;;;;;;;;5123923;28;20198;-75
2022/01/11 13:13:09;;;;;;;0.20;0.20;;;;;;;;;;5124431;28;20244;-74
2022/01/11 13:15:37;;;;;;;0.20;0.20;;;;;;;;;;5123823;28;20227;-76
2022/01/11 13:18:07;;;;;;;0.20;0.20;;;;;;;;;;5123497;28;20241;-75
2022/01/11 13:20:37;;;;;;;0.20;0.20;;;;;;;;;;5123564;28;20224;-75
2022/01/11 13:23:15;;;;;;;0.20;0.20;;;;;;;;;;5128151;28;20208;-74
2022/01/11 13:25:43;;;;;;;0.20;0.20;;;;;;;;;;5144499;27;20193;-76
2022/01/11 13:28:10;;;;;;;0.20;0.20;;;;;;;;;;5145199;27;20201;-73
2022/01/11 13:30:38;;;;;;;2.20;2.10;;;;;;;;;;5146066;27;20208;-76
2022/01/11 13:33:04;;;;;;;0.23;0.23;;;;;;;;;;5144183;27;20234;-75
2022/01/11 13:35:30;;;;;;;0.20;0.20;;;;;;;;;;5144301;27;20498;-75
2022/01/11 13:38:07;;;;;;;0.30;0.30;;;;;;;;;;5143036;27;20246;-74
2022/01/11 13:40:33;;;;;;;0.20;0.20;;;;;;;;;;5144350;27;20215;-75
2022/01/11 13:43:00;;;;;;;0.20;0.20;;;;;;;;;;5144056;27;20203;-75
2022/01/11 13:45:33;;;;;;;0.20;0.20;;;;;;;;;;5144320;27;20296;-75
2022/01/11 13:48:07;;;;;;;0.20;0.20;;;;;;;;;;5144687;27;20190;-76
2022/01/11 13:50:45;;;;;;;0.20;0.20;;;;;;;;;;5142071;27;20500;-73
2022/01/11 13:53:21;;;;;;;3.80;3.60;;;;;;;;;;5143995;27;20189;-76
2022/01/11 13:55:48;;;;;;;0.20;0.20;;;;;;;;;;5144837;27;20247;-73
2022/01/11 13:58:15;;;;;;;0.20;0.20;;;;;;;;;;5144493;27;20224;-75
2022/01/11 14:00:42;;;;;;;0.20;0.20;;;;;;;;;;5145200;27;20205;-75
2022/01/11 14:03:11;;;;;;;0.20;0.20;;;;;;;;;;5148098;27;20242;-75
2022/01/11 14:05:38;;;;;;;0.20;0.20;;;;;;;;;;5148844;27;20200;-76
2022/01/11 14:08:08;;;;;;;0.20;0.20;;;;;;;;;;5148141;27;20224;-75
2022/01/11 14:10:37;;;;;;;0.20;0.20;;;;;;;;;;5147318;27;20189;-75
2022/01/11 14:13:05;;;;;;;1.63;1.63;;;;;;;;;;5147148;27;20201;-76
2022/01/11 14:15:31;;;;;;;0.43;0.43;;;;;;;;;;5149366;27;20205;-73
2022/01/11 14:17:58;;;;;;;0.20;0.20;;;;;;;;;;5147042;27;20215;-75
2022/01/11 14:20:25;;;;;;;0.20;0.20;;;;;;;;;;5148333;27;20201;-74
2022/01/11 14:22:53;;;;;;;0.20;0.20;;;;;;;;;;5147403;27;20221;-75
2022/01/11 14:25:21;;;;;;;0.20;0.20;;;;;;;;;;5147526;27;20445;-75
2022/01/11 14:27:56;;;;;;;0.20;0.20;;;;;;;;;;5147646;27;20193;-75
2022/01/11 14:30:23;;;;;;;0.20;0.20;;;;;;;;;;5147364;27;20193;-75
2022/01/11 14:32:50;;;;;;;0.20;0.20;;;;;;;;;;5147487;27;20193;-74
2022/01/11 14:35:17;;;;;;;0.20;0.20;;;;;;;;;;5147485;27;20557;-75
2022/01/11 14:37:43;;;;;;;0.30;0.30;;;;;;;;;;5147425;27;20265;-77
2022/01/11 14:40:22;;;;;;;0.20;0.20;;;;;;;;;;5147565;27;20488;-73
2022/01/11 14:42:50;;;;;;;0.23;0.23;;;;;;;;;;5147087;27;20496;-74
2022/01/11 14:45:18;;;;;;;0.30;0.30;;;;;;;;;;5138247;27;20209;-73